Weather observations for the past three days for
Giddings, Giddings-Lee County Airport
Metric (Imperial)
Date Time (cdt) Wind (kph) Vis. (km) Weather Sky Cond. Temperature (ºC) Relative Humidity Wind Chill (°C) Heat Index (°C) Pressure Precipitation (cm)
Air Dwpt 6 hour altimeter (cm) sea level (mb) 1 hr 3 hr 6 hr
Max. Min.
02 09:15 SW 9 0.00 Fair CLR 28.5 23.5 74% 32 76.3 0.0
02 08:55 W 7 0.00 Fair CLR 27.6 23.5 78% 31 76.3 0.0
02 08:35 W 9 0.00 Fair CLR 26.8 23.3 81% 29 76.3 0.0
02 08:15 Calm 0.00 Fair CLR 26.3 23.2 83% 28 76.28 0.0
02 07:55 SW 7 0.00 NULL NULL 25.7 23.1 86% 27 76.23 0.0
02 07:35 SW 7 0.00 NULL NULL 25.7 23.1 86% 27 76.2 0.0
02 07:15 SW 7 0.00 NULL NULL 25.7 23.1 86% 27 76.2 0.0
02 06:55 SW 7 16.09 Fair CLR 25.7 23.1 26.5 24.5 86% 27 76.2 0.0
02 06:35 SW 7 16.09 Fair CLR 25.6 23 86% 27 76.2 0.0
02 06:15 SW 7 16.09 Fair CLR 25.7 23 85% 27 76.2 0.0
02 05:55 SW 7 16.09 Fair CLR 25.8 23 85% 27 76.2 0.0
02 05:35 SW 6 0.00 Fair CLR 25.7 22.7 84% 27 76.2 0.0
02 05:15 SW 7 0.00 Fair CLR 25.7 22.6 83% 27 76.2 0.0
02 04:55 SW 7 0.00 Fair CLR 25.5 22.1 82% 27 76.17 0.0
02 04:35 W 7 0.00 Fair CLR 25.6 22.1 81% 27 76.17 0.0
02 04:15 SW 6 0.00 Fair CLR 25.5 22 81% 27 76.17 0.0
02 03:55 SW 6 0.00 Fair CLR 25.2 21.8 82% 26 76.17 0.0
02 03:35 Calm 16.09 Fair CLR 24.5 21.5 83% 25 76.17 0.0
02 03:15 Calm 16.09 Fair CLR 24.7 21.5 82% 25 76.17 0.0
02 02:55 Calm 16.09 Fair CLR 24.8 21.5 82% 25 76.2 0.0
02 02:35 Calm 16.09 Fair CLR 25.6 21.5 78% 27 76.2 0.0
02 02:15 Calm 16.09 Fair CLR 25.8 21.5 77% 27 76.23 0.0
02 01:55 Calm 16.09 Fair CLR 25.9 21.5 77% 27 76.23 0.0
02 01:35 Calm 0.00 Fair CLR 26 21.5 76% 28 76.23 0.0
02 01:15 Calm 0.00 Fair CLR 26.4 21.3 74% 28 76.23 0.0
02 00:55 Calm 0.00 Fair CLR 26.3 21.3 34.5 26.3 74% 28 76.2 0.0
02 00:35 Calm 0.00 Fair CLR 26.6 21.2 72% 28 76.2 0.0
02 00:15 Calm 0.00 Fair CLR 27 21.2 71% 29 76.23 0.0
01 23:55 E 6 0.00 Fair CLR 27.1 21.1 70% 29 76.2 0.0
01 23:35 SE 6 0.00 Fair CLR 27.5 21.1 68% 30 76.23 0.0
01 23:15 SE 6 0.00 Fair CLR 27.6 21.1 68% 30 76.2 0.0
01 22:55 Calm 0.00 Fair CLR 27.9 21 66% 30 76.2 0.0
01 22:35 SE 6 0.00 Fair CLR 28.5 21 64% 31 76.2 0.0
01 22:15 SE 9 0.00 Fair CLR 29 21.2 63% 31 76.17 0.0
01 21:55 E 11 0.00 Fair CLR 29.5 21.1 61% 32 76.15 0.0
01 21:35 SE 11 0.00 Fair CLR 30.1 21 58% 33 76.15 0.0
01 21:15 SE 7 0.00 Fair CLR 30.4 20.9 57% 33 76.12 0.0
01 20:55 Calm 0.00 Fair CLR 30.3 20.8 57% 33 76.1 0.0
01 20:35 Calm 0.00 Fair CLR 30.9 21 56% 34 76.07 0.0
01 20:15 Calm 0.00 Fair CLR 31.4 21 54% 34 76.05 0.0
01 19:55 SE 6 0.00 Fair CLR 32.4 20.5 49% 35 76.05 0.0
01 19:35 SE 6 0.00 Fair CLR 33.4 20.1 46% 36 76.05 0.0
01 19:15 SE 7 0.00 Fair CLR 34.2 19.3 41% 36 76.05 0.0
01 18:55 SE 9 0.00 Fair CLR 34.5 19.5 37.5 33.8 41% 37 76.05 0.0
01 18:35 E 17 0.00 Fair CLR 34.7 20.1 42% 37 76.05 0.0
01 18:15 SE 13 0.00 Fair CLR 35 20.4 42% 38 76.05 0.0
01 17:55 SE 15 16.09 Partly Cloudy SCT080 35.1 20.2 42% 38 76.05 0.0
01 17:35 E 17 G 31 16.09 Partly Cloudy SCT070 SCT080 35.9 19.6 38% 38 76.05 0.0
01 17:15 E 9 16.09 Fair CLR 37.2 19.2 35% 40 76.05 0.0
01 16:55 E 11 0.00 Fair CLR 36.7 19 35% 39 76.05 0.0
01 16:35 E 7 0.00 Partly Cloudy SCT120 35.3 18.7 37% 37 76.05 0.0
01 16:15 E 11 16.09 Mostly Cloudy SCT070 SCT080 BKN120 35.2 19.7 40% 38 76.07 0.0
01 15:55 E 13 0.00 Mostly Cloudy SCT070 BKN080 BKN090 35.9 19.3 38% 38 76.07 0.0
01 15:35 Calm 0.00 Fair CLR 36.3 19.5 37% 39 76.1 0.0
01 15:15 E 11 0.00 Partly Cloudy SCT060 SCT070 SCT090 35 19.9 41% 38 76.12 0.0
01 14:55 N 7 0.00 Partly Cloudy SCT060 35.2 20 41% 38 76.15 0.0
01 14:35 Calm 0.00 Fair CLR 36.1 19.6 38% 39 76.15 0.0
01 14:15 S 7 0.00 Fair CLR 35.7 19.7 39% 38 76.17 0.0
01 13:55 E 13 0.00 Partly Cloudy SCT060 SCT080 35.6 19.2 38% 38 76.2 0.0
01 13:35 E 9 0.00 Mostly Cloudy SCT050 BKN080 35 20.3 42% 38 76.2 0.0
01 13:15 Calm 0.00 Partly Cloudy SCT050 SCT080 34.1 20.1 44% 37 76.25 0.0
01 12:55 Calm 16.09 Mostly Cloudy BKN050 BKN060 34.4 20.7 34.7 23.5 45% 37 76.28 0.0
01 12:35 Calm 0.00 Mostly Cloudy SCT050 BKN060 33.7 20.5 46% 36 76.3 0.0
01 12:15 Calm 0.00 Fair CLR 33 20.8 49% 36 76.33 0.0
01 11:55 E 6 0.00 Partly Cloudy SCT044 SCT050 32.5 21.1 51% 36 76.35 0.0
01 11:35 Calm 0.00 Mostly Cloudy BKN042 33 21.7 51% 37 76.35 0.0
01 11:15 Calm 0.00 Fair CLR 32.3 21.6 53% 36 76.35 0.0
01 10:55 Calm 0.00 Partly Cloudy SCT034 32.1 22 55% 36 76.38 0.0
01 10:35 Calm 16.09 Fair CLR 30.9 22.5 61% 35 76.38 0.0
01 10:15 NW 9 16.09 Fair CLR 31 23 62% 35 76.38 0.0
01 09:55 W 6 0.00 Fair CLR 30.1 23.1 66% 34 76.38 0.0
01 09:35 W 6 0.00 Partly Cloudy SCT016 29.4 24 73% 34 76.38 0.0
01 09:15 NW 7 0.00 Partly Cloudy SCT014 29 24.4 76% 34 76.38 0.0
01 08:55 W 6 0.00 Fair CLR 27.9 24.5 82% 32 76.38 0.0
01 08:35 NW 6 0.00 Fair CLR 27.1 24.4 85% 31 76.38 0.0
01 08:15 Calm 0.00 NULL NULL 26 23.9 88% 28 76.38 0.0
01 07:55 Calm 0.00 NULL NULL 25.5 23.7 90% 27 76.38 0.0
01 07:35 Calm 16.09 Partly Cloudy SCT009 24.5 23.1 92% 24 76.35 0.0
01 07:15 Calm 16.09 Partly Cloudy SCT011 23.5 22.5 94% 76.33 0.0
01 06:55 Calm 16.09 Fair CLR 23.5 22.5 27.3 23.3 94% 76.33 0.0
01 06:35 Calm 16.09 Fair CLR 23.5 22.4 94% 76.33 0.0
01 06:15 Calm 16.09 Fair CLR 23.7 22.6 94% 76.3 0.0
01 05:55 Calm 16.09 Fair CLR 23.7 22.2 91% 76.3 0.0
01 05:35 Calm 16.09 Fair CLR 23.8 22.3 91% 76.28 0.0
01 05:15 Calm 16.09 Fair CLR 24 22.5 91% 23 76.28 0.0
01 04:55 Calm 16.09 Fair CLR 24.7 22.8 89% 25 76.28 0.0
01 04:35 Calm 16.09 Fair CLR 24.4 22.5 89% 24 76.28 0.0
01 04:15 Calm 16.09 Fair CLR 25 22.7 87% 26 76.3 0.0
01 03:55 Calm 16.09 Fair CLR 25.1 22.9 88% 26 76.28 0.0
01 03:35 Calm 16.09 Fair CLR 25.4 22.6 85% 27 76.3 0.0
01 03:15 Calm 16.09 Partly Cloudy SCT120 25.6 22.7 84% 27 76.3 0.0
01 02:55 Calm 16.09 Mostly Cloudy BKN110 25.5 22.6 84% 27 76.3 0.0
01 02:35 Calm 16.09 Fair CLR 26.2 22.8 82% 28 76.3 0.0
01 02:15 Calm 16.09 Fair CLR 26.1 22.7 82% 28 76.3 0.0
01 01:55 Calm 16.09 Fair CLR 26.3 22.6 80% 28 76.33 0.0
01 01:35 Calm 16.09 Fair CLR 26.7 22.7 79% 29 76.3 0.0
01 01:15 Calm 16.09 Fair CLR 27 22.6 77% 29 76.3 0.0
01 00:55 S 6 16.09 Fair CLR 27.4 22.7 35 27.4 76% 30 76.28 0.0
01 00:35 Calm 16.09 Fair CLR 27.6 22.6 74% 30 76.28 0.0
01 00:15 S 6 16.09 Fair CLR 28 22.5 72% 31 76.28 0.0
31 23:55 S 6 16.09 Fair CLR 28.2 22.5 71% 31 76.28 0.0
31 23:35 S 7 16.09 Fair CLR 28.6 22.5 70% 32 76.25 0.0
31 23:15 S 6 16.09 Fair CLR 28.8 22.3 68% 32 76.28 0.0
31 22:55 S 6 16.09 Fair CLR 29.1 22.2 66% 32 76.25 0.0
31 22:35 S 9 16.09 Fair CLR 29.5 22.1 64% 33 76.25 0.0
31 22:15 Calm 16.09 Fair CLR 29.6 21.7 63% 33 76.25 0.0
31 21:55 Calm 16.09 Fair CLR 29.8 21.6 61% 33 76.2 0.0
31 21:35 S 6 16.09 Fair CLR 30.5 21.5 59% 34 76.17 0.0
31 21:15 SE 7 16.09 Fair CLR 31 21.3 56% 34 76.15 0.0
31 20:55 SE 11 16.09 Fair CLR 31.1 20.9 55% 34 76.15 0.0
31 20:35 SE 11 16.09 Fair CLR 31.8 20.5 51% 34 76.12 0.0
31 20:15 SE 11 16.09 Fair CLR 32.4 20 48% 35 76.12 0.0
31 19:55 SE 7 16.09 Fair CLR 33 19.7 45% 35 76.1 0.0
31 19:35 SE 7 16.09 Fair CLR 33.6 19.7 44% 36 76.1 0.0
31 19:15 SE 17 16.09 Fair CLR 34.5 19.1 40% 36 76.07 0.0
31 18:35 E 15 16.09 Fair CLR 36 17.8 34% 37 76.07 0.0
31 18:15 E 9 16.09 Fair CLR 36.2 17 32% 37 76.07 0.0
31 17:55 E 6 16.09 Fair CLR 36 17.7 34% 37 76.1 0.0
31 17:35 SE 9 16.09 Fair CLR 36.3 17.8 33% 38 76.07 0.0
31 17:15 SE 13 16.09 Fair CLR 36.9 16.9 31% 38 76.1 0.0
31 16:55 S 11 16.09 Partly Cloudy SCT075 36.8 17.6 32% 38 76.1 0.0
31 16:35 S 7 16.09 Partly Cloudy SCT075 36.2 16.7 31% 37 76.12 0.0
31 16:15 E 11 16.09 Partly Cloudy SCT075 36.7 17.5 32% 38 76.15 0.0
31 15:55 S 6 16.09 Fair CLR 36.7 17.2 32% 38 76.15 0.0
31 15:35 SE 6 16.09 Partly Cloudy SCT070 35.4 16.9 33% 36 76.17 0.0
31 15:15 SE 13 16.09 Partly Cloudy SCT070 36.7 17.5 32% 38 76.2 0.0
31 14:55 SE 7 0.00 Partly Cloudy SCT070 36.3 18 34% 38 76.23 0.0
31 14:35 E 13 16.09 Partly Cloudy SCT070 35.4 18.3 36% 37 76.25 0.0
31 14:15 SE 11 16.09 Mostly Cloudy BKN060 36 18.2 35% 38 76.28 0.0
31 13:55 Calm 16.09 Partly Cloudy SCT060 SCT070 34.9 19.1 39% 37 76.3 0.0
31 13:35 SE 9 16.09 Partly Cloudy SCT060 34.6 18.7 39% 36 76.3 0.0
31 13:15 Calm 16.09 Partly Cloudy SCT060 34.3 19 40% 36 76.33 0.0
31 12:55 SW 6 16.09 Partly Cloudy SCT050 34.7 19.6 34.7 22.7 41% 37 76.35 0.0
31 12:35 S 9 16.09 Partly Cloudy SCT050 33.7 19.9 44% 36 76.35 0.0
31 12:15 Calm 0.00 Partly Cloudy SCT048 33.1 21.1 49% 36 76.38 0.0
31 11:55 Calm 0.00 Partly Cloudy SCT043 33.5 21.4 49% 37 76.38 0.0
31 11:35 Calm 0.00 Partly Cloudy SCT038 31.8 21.5 54% 35 76.4 0.0
31 11:15 SW 6 0.00 Partly Cloudy SCT034 31.7 21.7 55% 35 76.4 0.0
31 10:55 Calm 16.09 Partly Cloudy SCT030 SCT035 30.7 22.3 61% 34 76.4 0.0
31 10:35 SW 6 0.00 Partly Cloudy SCT027 30.6 22.9 64% 35 76.4 0.0
31 10:15 S 7 0.00 Partly Cloudy SCT018 SCT027 30 23.5 68% 35 76.38 0.0
31 09:55 SW 7 16.09 Mostly Cloudy SCT016 BKN027 29.4 23.7 71% 34 76.4 0.0
31 09:35 Calm 0.00 Partly Cloudy SCT016 28.6 24.4 78% 33 76.38 0.0
31 09:15 Calm 0.00 Fair CLR 27.5 24.5 84% 31 76.38 0.0
31 08:55 Calm 0.00 NULL NULL 26.6 24.5 88% 29 76.38 0.0
31 08:35 Calm 0.00 NULL NULL 25.4 24.3 94% 27 76.35 0.0
31 08:15 Calm 0.00 NULL NULL 24.6 24 96% 24 76.33 0.0
31 07:55 Calm 11.27 Fair CLR 23.6 23 96% 76.33 0.0
31 07:35 Calm 0.00 NULL NULL 22.8 22.2 96% 76.33 0.0
31 07:15 Calm 0.00 NULL NULL 23.1 22.5 96% 76.3 0.0
31 06:55 Calm 0.00 NULL NULL 23 22.3 26.7 22.6 96% 76.3 0.0
31 06:35 Calm 0.00 NULL NULL 22.6 22 96% 76.3 0.0
31 06:15 Calm 0.00 NULL NULL 23 22.5 97% 76.3 0.0
31 05:55 Calm 0.00 NULL NULL 22.7 22.1 96% 76.28 0.0
31 05:35 Calm 0.00 NULL NULL 23.5 22.8 96% 76.28 0.0
31 05:15 Calm 0.00 NULL NULL 23.1 22.4 96% 76.28 0.0
31 04:55 Calm 0.00 NULL NULL 23.9 23 95% 23 76.28 0.0
31 04:35 Calm 0.00 NULL NULL 24 23.1 95% 23 76.28 0.0
31 04:15 Calm 0.00 NULL NULL 23.9 23 95% 23 76.28 0.0
31 03:55 Calm 0.00 NULL NULL 24.3 23.3 94% 24 76.28 0.0
31 03:35 Calm 0.00 NULL NULL 24.5 23.2 93% 24 76.28 0.0
31 03:15 Calm 0.00 NULL NULL 25 23.3 90% 26 76.3 0.0
31 02:55 Calm 0.00 NULL NULL 25 23.5 91% 26 76.3 0.0
31 02:35 Calm 0.00 NULL NULL 25.1 23.4 90% 26 76.28 0.0
31 02:15 S 6 0.00 NULL NULL 25.5 23.5 89% 27 76.3 0.0
31 01:55 Calm 0.00 NULL NULL 25.7 23.5 88% 27 76.3 0.0
31 01:35 Calm 0.00 Fair CLR 26 23.5 86% 28 76.33 0.0
31 01:15 Calm 0.00 Fair CLR 26.4 23.5 84% 29 76.3 0.0
31 00:55 S 7 0.00 Fair CLR 26.7 23.5 35 26.7 83% 29 76.3 0.0
31 00:35 S 9 0.00 Fair CLR 27 23.4 81% 30 76.3 0.0
31 00:15 S 7 0.00 Fair CLR 27.3 23.1 78% 30 76.28 0.0
30 23:55 S 9 16.09 Fair CLR 27.7 23 76% 31 76.28 0.0
30 23:35 S 7 0.00 Fair CLR 28 22.7 73% 31 76.28 0.0
30 23:15 S 7 0.00 Fair CLR 28.5 22.5 70% 32 76.28 0.0
30 22:55 S 11 0.00 Fair CLR 28.7 22.2 68% 32 76.25 0.0
30 22:35 S 6 0.00 Fair CLR 29 22 66% 32 76.23 0.0
30 22:15 S 6 0.00 Fair CLR 29.2 21.5 63% 32 76.2 0.0
30 21:55 S 6 0.00 Fair CLR 29.1 21.2 62% 32 76.2 0.0
30 21:35 Calm 16.09 Fair CLR 29.4 21.1 61% 32 76.17 0.0
30 21:15 Calm 16.09 Fair CLR 29.8 21.1 60% 32 76.15 0.0
30 20:55 Calm 0.00 Fair CLR 30.4 21.1 58% 33 76.12 0.0
30 20:35 Calm 0.00 Fair CLR 31 21.1 56% 34 76.12 0.0
30 20:15 S 6 0.00 Fair CLR 31.6 21 53% 34 76.1 0.0
30 19:55 S 7 0.00 Fair CLR 32.5 20.6 49% 35 76.1 0.0
30 19:35 SE 9 0.00 Fair CLR 33 20.7 48% 36 76.07 0.0
30 19:15 S 13 G 28 16.09 Fair CLR 33.9 20 44% 36 76.07 0.0
30 18:55 SE 11 16.09 Fair CLR 35.1 18.3 36.9 32.6 37% 37 76.05 0.0
30 18:35 S 9 16.09 Fair CLR 35.2 18.4 37% 37 76.07 0.0
30 18:15 E 11 16.09 Partly Cloudy SCT090 35.9 18.1 35% 37 76.07 0.0
30 17:55 SE 13 16.09 Partly Cloudy SCT070 35.3 18.7 37% 37 76.07 0.0
30 17:35 SE 13 16.09 Partly Cloudy SCT070 36.1 18.6 36% 38 76.07 0.0
30 17:15 SE 13 16.09 Fair CLR 35.9 18.6 36% 38 76.07 0.0
30 16:55 S 9 16.09 Fair CLR 35.7 18.4 36% 37 76.07 0.0
30 16:35 SE 7 16.09 Partly Cloudy SCT070 36 18.8 36% 38 76.1 0.0
30 16:15 SE 7 16.09 Mostly Cloudy BKN070 BKN080 36.7 19.2 36% 39 76.1 0.0
30 15:55 S 7 16.09 Fair CLR 36 19 37% 38 76.12 0.0
30 15:35 Calm 16.09 Fair CLR 35.8 18.6 36% 38 76.15 0.0
30 15:15 S 13 16.09 Partly Cloudy SCT070 36 19 37% 38 76.2 0.0
30 14:55 SE 11 16.09 Partly Cloudy SCT070 35.9 18.4 36% 38 76.2 0.0
30 14:35 S 9 16.09 Mostly Cloudy BKN060 34.5 18.9 40% 36 76.23 0.0
30 14:15 S 6 16.09 Partly Cloudy SCT060 34.6 19.4 41% 37 76.25 0.0
30 13:55 S 7 16.09 Partly Cloudy SCT050 35.3 19.9 40% 38 76.3 0.0
30 13:35 Calm 16.09 Partly Cloudy SCT050 33.1 20.2 47% 36 76.33 0.0
30 13:15 S 9 0.00 Partly Cloudy SCT050 34 20.4 45% 37 76.35 0.0
30 12:55 S 6 0.00 Mostly Cloudy SCT048 BKN055 32.8 20.6 33.7 23.3 49% 36 76.38 0.0
30 12:35 SW 7 0.00 Mostly Cloudy BKN046 32.6 20.7 49% 35 76.38 0.0
30 12:15 S 7 0.00 Mostly Cloudy BKN042 BKN050 32.2 21.2 52% 35 76.4 0.0
30 11:55 SW 9 16.09 Mostly Cloudy BKN040 31.3 21.1 55% 34 76.43 0.0
30 11:35 S 6 0.00 Partly Cloudy SCT034 SCT044 31.6 21.6 55% 35 76.45 0.0
30 11:15 SW 7 16.09 Partly Cloudy SCT032 31.1 22 58% 35 76.45 0.0
30 10:55 Calm 0.00 Partly Cloudy SCT030 30.4 22.1 61% 34 76.45 0.0
30 10:35 SW 7 16.09 Partly Cloudy SCT022 SCT032 29.4 22.3 66% 33 76.45 0.0
30 10:15 SW 6 16.09 Partly Cloudy SCT018 SCT024 SCT036 29.1 23.1 70% 33 76.45 0.0
30 09:55 SW 7 0.00 Mostly Cloudy BKN016 BKN023 28.9 23.8 74% 33 76.43 0.0
30 09:35 Calm 0.00 Mostly Cloudy SCT012 SCT017 BKN022 27.5 24.1 82% 31 76.43 0.0
Date Time (cdt) Wind (kph) Vis. (km) Weather Sky Cond. Air Dwpt Max. Min. Relative Humidity Wind Chill (°C) Heat Index (°C) altimeter (cm) sea level (mb) 1 hr 3 hr 6 hr
6 hour
Temperature (ºC) Pressure Precipitation (cm)